Yerseke, Netherlands
Current Conditions -  °F | °C
As of 3:35 AM on Sunday 23 Nov 2014 (Local Time) from EHWO Reporting Station
Light Rain Light Rain  
Wind Chill: 50°   Ceiling: 9500
Heat Index: 50°   Visibility: 5mi
Dew Point: 48°   Wind: 3mph
Humidity: 94%   Direction: 150°SSE
Pressure: 30.03"   Gusts: NA
Location:  51.49°N, 4.05°E
Report Text: EHWO 230235Z AUTO 15003KT 8000 -DZRA FEW040 OVC095 10/09 Q1017 REDZ BLU
Loading
Personal Weather Stations






























Interactive Weather Map New forecast layout! Learn more

10-Day Weather Forecast

Advertisements
Track Severe Weather on mobile